sensor_id;sensor_type;location;lat;lon;timestamp;P1;durP1;ratioP1;P2;durP2;ratioP2
30617;SDS011;17384;51.214;9.202;2023-07-20T00:01:56;5.93;;;3.97;;
30617;SDS011;17384;51.214;9.202;2023-07-20T00:04:21;6.00;;;4.10;;
30617;SDS011;17384;51.214;9.202;2023-07-20T00:06:47;5.07;;;3.45;;
30617;SDS011;17384;51.214;9.202;2023-07-20T00:09:12;4.63;;;3.72;;
30617;SDS011;17384;51.214;9.202;2023-07-20T00:11:38;6.38;;;3.95;;
30617;SDS011;17384;51.214;9.202;2023-07-20T00:14:04;5.18;;;4.03;;
30617;SDS011;17384;51.214;9.202;2023-07-20T00:16:30;7.88;;;5.28;;
30617;SDS011;17384;51.214;9.202;2023-07-20T00:18:56;3.80;;;3.45;;
30617;SDS011;17384;51.214;9.202;2023-07-20T00:21:21;8.15;;;3.88;;
30617;SDS011;17384;51.214;9.202;2023-07-20T00:23:47;4.80;;;3.67;;
30617;SDS011;17384;51.214;9.202;2023-07-20T00:26:12;5.45;;;3.45;;
30617;SDS011;17384;51.214;9.202;2023-07-20T00:28:38;6.68;;;3.33;;
30617;SDS011;17384;51.214;9.202;2023-07-20T00:31:04;6.47;;;3.58;;
30617;SDS011;17384;51.214;9.202;2023-07-20T00:33:30;5.88;;;3.80;;
30617;SDS011;17384;51.214;9.202;2023-07-20T00:35:55;7.60;;;4.50;;
30617;SDS011;17384;51.214;9.202;2023-07-20T00:38:21;7.85;;;4.28;;
30617;SDS011;17384;51.214;9.202;2023-07-20T00:40:47;5.45;;;4.00;;
30617;SDS011;17384;51.214;9.202;2023-07-20T00:43:13;3.88;;;3.40;;
30617;SDS011;17384;51.214;9.202;2023-07-20T00:45:38;5.18;;;3.72;;
30617;SDS011;17384;51.214;9.202;2023-07-20T00:48:05;5.47;;;3.90;;
30617;SDS011;17384;51.214;9.202;2023-07-20T00:50:32;5.00;;;3.28;;
30617;SDS011;17384;51.214;9.202;2023-07-20T00:52:58;5.78;;;4.03;;
30617;SDS011;17384;51.214;9.202;2023-07-20T00:55:24;6.32;;;3.47;;
30617;SDS011;17384;51.214;9.202;2023-07-20T00:57:51;6.40;;;3.05;;
30617;SDS011;17384;51.214;9.202;2023-07-20T01:00:17;4.72;;;3.88;;
30617;SDS011;17384;51.214;9.202;2023-07-20T01:02:44;4.85;;;3.20;;
30617;SDS011;17384;51.214;9.202;2023-07-20T01:05:10;8.15;;;3.92;;
30617;SDS011;17384;51.214;9.202;2023-07-20T01:07:51;5.57;;;4.40;;
30617;SDS011;17384;51.214;9.202;2023-07-20T01:10:25;4.97;;;3.72;;
30617;SDS011;17384;51.214;9.202;2023-07-20T01:12:56;4.82;;;3.67;;
30617;SDS011;17384;51.214;9.202;2023-07-20T01:15:22;4.68;;;3.50;;
30617;SDS011;17384;51.214;9.202;2023-07-20T01:17:48;7.07;;;3.55;;
30617;SDS011;17384;51.214;9.202;2023-07-20T01:20:14;4.55;;;3.90;;
30617;SDS011;17384;51.214;9.202;2023-07-20T01:22:59;5.60;;;3.90;;
30617;SDS011;17384;51.214;9.202;2023-07-20T01:33:40;6.35;;;4.57;;
30617;SDS011;17384;51.214;9.202;2023-07-20T01:36:07;4.82;;;3.50;;
30617;SDS011;17384;51.214;9.202;2023-07-20T01:38:35;5.90;;;3.88;;
30617;SDS011;17384;51.214;9.202;2023-07-20T01:41:02;5.75;;;3.95;;
30617;SDS011;17384;51.214;9.202;2023-07-20T01:43:28;5.30;;;4.43;;
30617;SDS011;17384;51.214;9.202;2023-07-20T01:45:53;6.57;;;3.83;;
30617;SDS011;17384;51.214;9.202;2023-07-20T01:48:19;5.10;;;3.45;;
30617;SDS011;17384;51.214;9.202;2023-07-20T01:50:44;4.93;;;3.47;;
30617;SDS011;17384;51.214;9.202;2023-07-20T01:53:10;5.88;;;3.58;;
30617;SDS011;17384;51.214;9.202;2023-07-20T01:55:36;4.75;;;3.78;;
30617;SDS011;17384;51.214;9.202;2023-07-20T01:58:01;4.63;;;4.07;;
30617;SDS011;17384;51.214;9.202;2023-07-20T02:00:28;4.93;;;4.25;;
30617;SDS011;17384;51.214;9.202;2023-07-20T02:02:54;7.88;;;4.05;;
30617;SDS011;17384;51.214;9.202;2023-07-20T02:05:19;10.20;;;4.00;;
30617;SDS011;17384;51.214;9.202;2023-07-20T02:07:45;9.52;;;3.35;;
30617;SDS011;17384;51.214;9.202;2023-07-20T02:10:10;5.15;;;3.65;;
30617;SDS011;17384;51.214;9.202;2023-07-20T02:12:36;4.68;;;3.90;;
30617;SDS011;17384;51.214;9.202;2023-07-20T02:15:02;4.15;;;3.75;;
30617;SDS011;17384;51.214;9.202;2023-07-20T02:17:28;4.20;;;3.75;;
30617;SDS011;17384;51.214;9.202;2023-07-20T02:19:56;5.63;;;4.10;;
30617;SDS011;17384;51.214;9.202;2023-07-20T02:22:22;4.18;;;3.50;;
30617;SDS011;17384;51.214;9.202;2023-07-20T02:24:48;5.35;;;4.20;;
30617;SDS011;17384;51.214;9.202;2023-07-20T02:27:15;5.85;;;4.68;;
30617;SDS011;17384;51.214;9.202;2023-07-20T02:29:41;5.22;;;4.55;;
30617;SDS011;17384;51.214;9.202;2023-07-20T02:32:07;5.85;;;4.53;;
30617;SDS011;17384;51.214;9.202;2023-07-20T02:34:34;7.22;;;4.55;;
30617;SDS011;17384;51.214;9.202;2023-07-20T02:37:00;4.35;;;3.67;;
30617;SDS011;17384;51.214;9.202;2023-07-20T02:39:29;5.80;;;4.53;;
30617;SDS011;17384;51.214;9.202;2023-07-20T02:41:54;6.70;;;4.18;;
30617;SDS011;17384;51.214;9.202;2023-07-20T02:44:20;4.57;;;3.78;;
30617;SDS011;17384;51.214;9.202;2023-07-20T02:46:45;5.60;;;4.53;;
30617;SDS011;17384;51.214;9.202;2023-07-20T02:49:11;5.25;;;4.22;;
30617;SDS011;17384;51.214;9.202;2023-07-20T02:51:37;7.90;;;5.00;;
30617;SDS011;17384;51.214;9.202;2023-07-20T02:54:02;6.45;;;4.40;;
30617;SDS011;17384;51.214;9.202;2023-07-20T02:56:28;10.02;;;4.15;;
30617;SDS011;17384;51.214;9.202;2023-07-20T02:58:54;6.15;;;3.55;;
30617;SDS011;17384;51.214;9.202;2023-07-20T03:01:19;6.35;;;4.30;;
30617;SDS011;17384;51.214;9.202;2023-07-20T03:03:45;5.32;;;4.18;;
30617;SDS011;17384;51.214;9.202;2023-07-20T03:06:12;4.55;;;4.05;;
30617;SDS011;17384;51.214;9.202;2023-07-20T03:08:39;6.07;;;4.63;;
30617;SDS011;17384;51.214;9.202;2023-07-20T03:11:06;3.97;;;3.58;;
30617;SDS011;17384;51.214;9.202;2023-07-20T03:13:31;6.25;;;4.18;;
30617;SDS011;17384;51.214;9.202;2023-07-20T03:15:57;4.18;;;3.70;;
30617;SDS011;17384;51.214;9.202;2023-07-20T03:18:22;5.25;;;3.95;;
30617;SDS011;17384;51.214;9.202;2023-07-20T03:20:48;6.57;;;4.13;;
30617;SDS011;17384;51.214;9.202;2023-07-20T03:23:14;7.50;;;4.00;;
30617;SDS011;17384;51.214;9.202;2023-07-20T03:25:40;11.55;;;4.90;;
30617;SDS011;17384;51.214;9.202;2023-07-20T03:28:06;5.60;;;4.28;;
30617;SDS011;17384;51.214;9.202;2023-07-20T03:30:31;7.20;;;5.38;;
30617;SDS011;17384;51.214;9.202;2023-07-20T03:32:57;8.50;;;5.30;;
30617;SDS011;17384;51.214;9.202;2023-07-20T03:35:22;7.25;;;5.32;;
30617;SDS011;17384;51.214;9.202;2023-07-20T03:37:48;9.18;;;5.38;;
30617;SDS011;17384;51.214;9.202;2023-07-20T03:40:14;9.63;;;5.72;;
30617;SDS011;17384;51.214;9.202;2023-07-20T03:42:40;5.97;;;4.75;;
30617;SDS011;17384;51.214;9.202;2023-07-20T03:45:06;7.32;;;5.30;;
30617;SDS011;17384;51.214;9.202;2023-07-20T03:47:32;8.13;;;5.63;;
30617;SDS011;17384;51.214;9.202;2023-07-20T03:49:58;9.43;;;4.97;;
30617;SDS011;17384;51.214;9.202;2023-07-20T03:52:23;7.28;;;4.95;;
30617;SDS011;17384;51.214;9.202;2023-07-20T03:54:49;5.57;;;5.07;;
30617;SDS011;17384;51.214;9.202;2023-07-20T03:57:16;6.22;;;4.53;;
30617;SDS011;17384;51.214;9.202;2023-07-20T03:59:44;7.38;;;4.05;;
30617;SDS011;17384;51.214;9.202;2023-07-20T04:02:10;5.78;;;4.82;;
30617;SDS011;17384;51.214;9.202;2023-07-20T04:04:36;9.65;;;5.82;;
30617;SDS011;17384;51.214;9.202;2023-07-20T04:07:01;8.07;;;5.18;;
30617;SDS011;17384;51.214;9.202;2023-07-20T04:09:27;6.75;;;4.78;;
30617;SDS011;17384;51.214;9.202;2023-07-20T04:11:52;7.93;;;5.25;;
30617;SDS011;17384;51.214;9.202;2023-07-20T04:14:18;6.35;;;5.38;;
30617;SDS011;17384;51.214;9.202;2023-07-20T04:16:43;5.95;;;5.07;;
30617;SDS011;17384;51.214;9.202;2023-07-20T04:19:11;5.90;;;4.80;;
30617;SDS011;17384;51.214;9.202;2023-07-20T04:21:39;9.68;;;5.03;;
30617;SDS011;17384;51.214;9.202;2023-07-20T04:24:06;6.75;;;4.75;;
30617;SDS011;17384;51.214;9.202;2023-07-20T04:26:31;5.43;;;4.88;;
30617;SDS011;17384;51.214;9.202;2023-07-20T04:28:57;9.80;;;4.80;;
30617;SDS011;17384;51.214;9.202;2023-07-20T04:31:24;9.52;;;5.47;;
30617;SDS011;17384;51.214;9.202;2023-07-20T04:33:50;6.18;;;5.40;;
30617;SDS011;17384;51.214;9.202;2023-07-20T04:36:15;5.78;;;5.10;;
30617;SDS011;17384;51.214;9.202;2023-07-20T04:38:44;6.18;;;5.57;;
30617;SDS011;17384;51.214;9.202;2023-07-20T04:41:11;8.98;;;5.70;;
30617;SDS011;17384;51.214;9.202;2023-07-20T04:43:43;6.90;;;4.97;;
30617;SDS011;17384;51.214;9.202;2023-07-20T04:46:09;7.50;;;5.43;;
30617;SDS011;17384;51.214;9.202;2023-07-20T04:48:35;7.10;;;5.30;;
30617;SDS011;17384;51.214;9.202;2023-07-20T04:51:01;7.25;;;5.43;;
30617;SDS011;17384;51.214;9.202;2023-07-20T04:53:27;7.40;;;5.80;;
30617;SDS011;17384;51.214;9.202;2023-07-20T04:55:53;7.10;;;5.97;;
30617;SDS011;17384;51.214;9.202;2023-07-20T04:58:19;8.80;;;6.13;;
30617;SDS011;17384;51.214;9.202;2023-07-20T05:00:46;9.30;;;6.00;;
30617;SDS011;17384;51.214;9.202;2023-07-20T05:03:12;11.68;;;6.78;;
30617;SDS011;17384;51.214;9.202;2023-07-20T05:05:38;6.60;;;5.78;;
30617;SDS011;17384;51.214;9.202;2023-07-20T05:08:04;8.15;;;5.53;;
30617;SDS011;17384;51.214;9.202;2023-07-20T05:10:29;7.80;;;5.88;;
30617;SDS011;17384;51.214;9.202;2023-07-20T05:12:55;8.38;;;5.15;;
30617;SDS011;17384;51.214;9.202;2023-07-20T05:15:20;7.72;;;5.70;;
30617;SDS011;17384;51.214;9.202;2023-07-20T05:17:46;8.18;;;5.90;;
30617;SDS011;17384;51.214;9.202;2023-07-20T05:20:13;9.73;;;5.65;;
30617;SDS011;17384;51.214;9.202;2023-07-20T05:22:39;13.35;;;5.25;;
30617;SDS011;17384;51.214;9.202;2023-07-20T05:25:07;6.45;;;5.43;;
30617;SDS011;17384;51.214;9.202;2023-07-20T05:27:34;8.63;;;5.25;;
30617;SDS011;17384;51.214;9.202;2023-07-20T05:30:01;10.60;;;5.15;;
30617;SDS011;17384;51.214;9.202;2023-07-20T05:32:27;6.95;;;4.70;;
30617;SDS011;17384;51.214;9.202;2023-07-20T05:34:53;8.07;;;6.30;;
30617;SDS011;17384;51.214;9.202;2023-07-20T05:37:19;8.25;;;6.20;;
30617;SDS011;17384;51.214;9.202;2023-07-20T05:39:45;6.40;;;5.25;;
30617;SDS011;17384;51.214;9.202;2023-07-20T05:42:10;7.10;;;5.28;;
30617;SDS011;17384;51.214;9.202;2023-07-20T05:44:36;8.60;;;6.18;;
30617;SDS011;17384;51.214;9.202;2023-07-20T05:47:01;8.07;;;6.22;;
30617;SDS011;17384;51.214;9.202;2023-07-20T05:49:27;7.70;;;5.03;;
30617;SDS011;17384;51.214;9.202;2023-07-20T05:51:54;11.82;;;5.68;;
30617;SDS011;17384;51.214;9.202;2023-07-20T05:54:20;14.90;;;6.28;;
30617;SDS011;17384;51.214;9.202;2023-07-20T05:56:46;10.52;;;7.15;;
30617;SDS011;17384;51.214;9.202;2023-07-20T05:59:12;9.68;;;6.75;;
30617;SDS011;17384;51.214;9.202;2023-07-20T06:01:37;11.32;;;7.72;;
30617;SDS011;17384;51.214;9.202;2023-07-20T06:04:03;8.93;;;7.00;;
30617;SDS011;17384;51.214;9.202;2023-07-20T06:06:29;12.35;;;6.95;;
30617;SDS011;17384;51.214;9.202;2023-07-20T06:08:54;7.82;;;6.90;;
30617;SDS011;17384;51.214;9.202;2023-07-20T06:11:20;14.63;;;7.78;;
30617;SDS011;17384;51.214;9.202;2023-07-20T06:13:45;16.65;;;7.30;;
30617;SDS011;17384;51.214;9.202;2023-07-20T06:16:11;10.10;;;6.40;;
30617;SDS011;17384;51.214;9.202;2023-07-20T06:18:36;10.40;;;7.63;;
30617;SDS011;17384;51.214;9.202;2023-07-20T06:21:02;10.50;;;7.68;;
30617;SDS011;17384;51.214;9.202;2023-07-20T06:23:27;10.50;;;7.47;;
30617;SDS011;17384;51.214;9.202;2023-07-20T06:25:53;11.60;;;8.23;;
30617;SDS011;17384;51.214;9.202;2023-07-20T06:28:18;10.00;;;7.40;;
30617;SDS011;17384;51.214;9.202;2023-07-20T06:30:44;11.20;;;7.93;;
30617;SDS011;17384;51.214;9.202;2023-07-20T06:33:10;10.63;;;7.82;;
30617;SDS011;17384;51.214;9.202;2023-07-20T06:35:35;11.73;;;7.63;;
30617;SDS011;17384;51.214;9.202;2023-07-20T06:38:01;11.95;;;7.13;;
30617;SDS011;17384;51.214;9.202;2023-07-20T06:40:29;11.80;;;7.00;;
30617;SDS011;17384;51.214;9.202;2023-07-20T06:42:55;11.52;;;6.65;;
30617;SDS011;17384;51.214;9.202;2023-07-20T06:45:20;13.75;;;6.35;;
30617;SDS011;17384;51.214;9.202;2023-07-20T06:47:46;11.73;;;6.85;;
30617;SDS011;17384;51.214;9.202;2023-07-20T06:50:11;9.82;;;5.78;;
30617;SDS011;17384;51.214;9.202;2023-07-20T06:52:37;11.77;;;6.63;;
30617;SDS011;17384;51.214;9.202;2023-07-20T06:55:05;10.50;;;6.28;;
30617;SDS011;17384;51.214;9.202;2023-07-20T06:57:31;10.90;;;7.57;;
30617;SDS011;17384;51.214;9.202;2023-07-20T06:59:57;12.10;;;7.35;;
30617;SDS011;17384;51.214;9.202;2023-07-20T07:02:22;11.02;;;8.13;;
30617;SDS011;17384;51.214;9.202;2023-07-20T07:04:48;14.30;;;8.25;;
30617;SDS011;17384;51.214;9.202;2023-07-20T07:07:14;11.10;;;7.47;;
30617;SDS011;17384;51.214;9.202;2023-07-20T07:09:40;11.23;;;8.07;;
30617;SDS011;17384;51.214;9.202;2023-07-20T07:12:06;12.10;;;8.63;;
30617;SDS011;17384;51.214;9.202;2023-07-20T07:14:32;10.82;;;7.40;;
30617;SDS011;17384;51.214;9.202;2023-07-20T07:16:58;9.90;;;7.25;;
30617;SDS011;17384;51.214;9.202;2023-07-20T07:19:24;10.35;;;6.57;;
30617;SDS011;17384;51.214;9.202;2023-07-20T07:21:49;8.27;;;6.15;;
30617;SDS011;17384;51.214;9.202;2023-07-20T07:24:15;10.45;;;6.53;;
30617;SDS011;17384;51.214;9.202;2023-07-20T07:26:41;7.43;;;5.65;;
30617;SDS011;17384;51.214;9.202;2023-07-20T07:29:06;7.47;;;5.50;;
30617;SDS011;17384;51.214;9.202;2023-07-20T07:31:34;12.75;;;5.50;;
30617;SDS011;17384;51.214;9.202;2023-07-20T07:34:01;8.68;;;6.07;;
30617;SDS011;17384;51.214;9.202;2023-07-20T07:36:27;12.00;;;5.85;;
30617;SDS011;17384;51.214;9.202;2023-07-20T07:38:53;17.52;;;5.20;;
30617;SDS011;17384;51.214;9.202;2023-07-20T07:41:18;7.60;;;4.78;;
30617;SDS011;17384;51.214;9.202;2023-07-20T07:43:43;7.00;;;5.03;;
30617;SDS011;17384;51.214;9.202;2023-07-20T07:46:09;11.75;;;6.20;;
30617;SDS011;17384;51.214;9.202;2023-07-20T07:48:34;15.23;;;7.95;;
30617;SDS011;17384;51.214;9.202;2023-07-20T07:51:00;6.07;;;3.65;;
30617;SDS011;17384;51.214;9.202;2023-07-20T07:53:25;6.88;;;3.17;;
30617;SDS011;17384;51.214;9.202;2023-07-20T07:55:53;5.60;;;3.20;;
30617;SDS011;17384;51.214;9.202;2023-07-20T07:58:19;4.25;;;2.97;;
30617;SDS011;17384;51.214;9.202;2023-07-20T08:00:45;5.20;;;3.25;;
30617;SDS011;17384;51.214;9.202;2023-07-20T08:03:12;4.93;;;3.28;;
30617;SDS011;17384;51.214;9.202;2023-07-20T08:05:38;4.22;;;3.15;;
30617;SDS011;17384;51.214;9.202;2023-07-20T08:08:03;6.00;;;3.50;;
30617;SDS011;17384;51.214;9.202;2023-07-20T08:10:29;3.67;;;3.30;;
30617;SDS011;17384;51.214;9.202;2023-07-20T08:12:55;3.47;;;2.88;;
30617;SDS011;17384;51.214;9.202;2023-07-20T08:15:21;2.83;;;2.55;;
30617;SDS011;17384;51.214;9.202;2023-07-20T08:17:46;4.22;;;2.75;;
30617;SDS011;17384;51.214;9.202;2023-07-20T08:20:13;3.45;;;2.40;;
30617;SDS011;17384;51.214;9.202;2023-07-20T08:22:39;4.03;;;2.40;;
30617;SDS011;17384;51.214;9.202;2023-07-20T08:25:08;4.60;;;2.88;;
30617;SDS011;17384;51.214;9.202;2023-07-20T08:27:34;2.70;;;2.13;;
30617;SDS011;17384;51.214;9.202;2023-07-20T08:30:00;2.70;;;2.50;;
30617;SDS011;17384;51.214;9.202;2023-07-20T08:32:26;5.13;;;2.05;;
30617;SDS011;17384;51.214;9.202;2023-07-20T08:34:51;3.13;;;2.30;;
30617;SDS011;17384;51.214;9.202;2023-07-20T08:37:17;2.40;;;2.20;;
30617;SDS011;17384;51.214;9.202;2023-07-20T08:39:42;5.07;;;2.90;;
30617;SDS011;17384;51.214;9.202;2023-07-20T08:42:08;2.70;;;2.50;;
30617;SDS011;17384;51.214;9.202;2023-07-20T08:44:34;3.53;;;2.45;;
30617;SDS011;17384;51.214;9.202;2023-07-20T08:47:02;4.32;;;2.40;;
30617;SDS011;17384;51.214;9.202;2023-07-20T08:49:29;3.33;;;3.00;;
30617;SDS011;17384;51.214;9.202;2023-07-20T08:51:57;4.22;;;2.97;;
30617;SDS011;17384;51.214;9.202;2023-07-20T08:54:24;3.55;;;2.88;;
30617;SDS011;17384;51.214;9.202;2023-07-20T08:56:52;3.95;;;3.53;;
30617;SDS011;17384;51.214;9.202;2023-07-20T08:59:20;4.10;;;3.45;;
30617;SDS011;17384;51.214;9.202;2023-07-20T09:01:49;3.72;;;3.22;;
30617;SDS011;17384;51.214;9.202;2023-07-20T09:04:17;5.28;;;3.75;;
30617;SDS011;17384;51.214;9.202;2023-07-20T09:06:43;4.45;;;4.05;;
30617;SDS011;17384;51.214;9.202;2023-07-20T09:09:08;7.00;;;4.22;;
30617;SDS011;17384;51.214;9.202;2023-07-20T09:11:34;4.90;;;4.03;;
30617;SDS011;17384;51.214;9.202;2023-07-20T09:14:06;4.00;;;3.55;;
30617;SDS011;17384;51.214;9.202;2023-07-20T09:16:32;6.63;;;3.97;;
30617;SDS011;17384;51.214;9.202;2023-07-20T09:19:11;6.05;;;4.18;;
30617;SDS011;17384;51.214;9.202;2023-07-20T09:21:37;4.07;;;3.67;;
30617;SDS011;17384;51.214;9.202;2023-07-20T09:24:02;4.75;;;4.05;;
30617;SDS011;17384;51.214;9.202;2023-07-20T09:26:28;6.13;;;4.38;;
30617;SDS011;17384;51.214;9.202;2023-07-20T09:28:53;5.30;;;3.75;;
30617;SDS011;17384;51.214;9.202;2023-07-20T09:31:22;3.97;;;3.45;;
30617;SDS011;17384;51.214;9.202;2023-07-20T09:33:48;5.18;;;3.90;;
30617;SDS011;17384;51.214;9.202;2023-07-20T09:36:14;7.13;;;4.18;;
30617;SDS011;17384;51.214;9.202;2023-07-20T09:38:43;4.25;;;3.70;;
30617;SDS011;17384;51.214;9.202;2023-07-20T09:41:18;12.68;;;5.55;;
30617;SDS011;17384;51.214;9.202;2023-07-20T09:43:45;10.40;;;5.50;;
30617;SDS011;17384;51.214;9.202;2023-07-20T09:46:11;12.02;;;5.00;;
30617;SDS011;17384;51.214;9.202;2023-07-20T09:48:36;4.00;;;3.25;;
30617;SDS011;17384;51.214;9.202;2023-07-20T09:51:02;14.27;;;5.28;;
30617;SDS011;17384;51.214;9.202;2023-07-20T09:53:30;11.60;;;4.30;;
30617;SDS011;17384;51.214;9.202;2023-07-20T09:55:58;5.97;;;3.10;;
30617;SDS011;17384;51.214;9.202;2023-07-20T09:58:25;10.13;;;4.47;;
30617;SDS011;17384;51.214;9.202;2023-07-20T10:00:52;5.45;;;3.50;;
30617;SDS011;17384;51.214;9.202;2023-07-20T10:03:22;4.15;;;3.20;;
30617;SDS011;17384;51.214;9.202;2023-07-20T10:06:02;6.38;;;3.38;;
30617;SDS011;17384;51.214;9.202;2023-07-20T10:08:32;4.20;;;3.60;;
30617;SDS011;17384;51.214;9.202;2023-07-20T10:11:03;4.18;;;3.13;;
30617;SDS011;17384;51.214;9.202;2023-07-20T10:13:30;3.40;;;2.92;;
30617;SDS011;17384;51.214;9.202;2023-07-20T10:16:07;4.40;;;2.42;;
30617;SDS011;17384;51.214;9.202;2023-07-20T10:21:50;8.27;;;1.50;;
30617;SDS011;17384;51.214;9.202;2023-07-20T10:26:47;2.50;;;1.00;;
30617;SDS011;17384;51.214;9.202;2023-07-20T10:29:14;1.33;;;1.20;;
30617;SDS011;17384;51.214;9.202;2023-07-20T10:31:40;0.50;;;0.50;;
30617;SDS011;17384;51.214;9.202;2023-07-20T10:34:06;0.98;;;0.80;;
30617;SDS011;17384;51.214;9.202;2023-07-20T10:36:31;2.70;;;0.70;;
30617;SDS011;17384;51.214;9.202;2023-07-20T10:38:57;0.68;;;0.65;;
30617;SDS011;17384;51.214;9.202;2023-07-20T10:41:33;4.05;;;0.80;;
30617;SDS011;17384;51.214;9.202;2023-07-20T10:44:01;2.25;;;0.82;;
30617;SDS011;17384;51.214;9.202;2023-07-20T10:49:03;0.55;;;0.43;;
30617;SDS011;17384;51.214;9.202;2023-07-20T10:51:39;1.20;;;0.57;;
30617;SDS011;17384;51.214;9.202;2023-07-20T10:56:40;2.05;;;0.65;;
30617;SDS011;17384;51.214;9.202;2023-07-20T10:59:17;0.50;;;0.40;;
30617;SDS011;17384;51.214;9.202;2023-07-20T11:01:49;0.80;;;0.50;;
30617;SDS011;17384;51.214;9.202;2023-07-20T11:04:15;3.97;;;1.48;;
30617;SDS011;17384;51.214;9.202;2023-07-20T11:06:43;3.70;;;1.02;;
30617;SDS011;17384;51.214;9.202;2023-07-20T11:09:13;2.33;;;0.80;;
30617;SDS011;17384;51.214;9.202;2023-07-20T11:11:48;4.50;;;0.93;;
30617;SDS011;17384;51.214;9.202;2023-07-20T11:14:24;2.75;;;1.08;;
30617;SDS011;17384;51.214;9.202;2023-07-20T11:16:51;1.00;;;0.68;;
30617;SDS011;17384;51.214;9.202;2023-07-20T11:19:21;2.97;;;0.80;;
30617;SDS011;17384;51.214;9.202;2023-07-20T11:21:51;0.73;;;0.60;;
30617;SDS011;17384;51.214;9.202;2023-07-20T11:24:21;1.02;;;0.60;;
30617;SDS011;17384;51.214;9.202;2023-07-20T11:26:51;1.13;;;0.45;;
30617;SDS011;17384;51.214;9.202;2023-07-20T11:29:19;0.50;;;0.50;;
30617;SDS011;17384;51.214;9.202;2023-07-20T11:31:46;3.92;;;0.52;;
30617;SDS011;17384;51.214;9.202;2023-07-20T11:34:13;3.30;;;0.70;;
30617;SDS011;17384;51.214;9.202;2023-07-20T11:36:44;2.38;;;0.55;;
30617;SDS011;17384;51.214;9.202;2023-07-20T11:39:11;1.52;;;0.70;;
30617;SDS011;17384;51.214;9.202;2023-07-20T11:41:47;5.70;;;0.50;;
30617;SDS011;17384;51.214;9.202;2023-07-20T11:44:17;0.47;;;0.47;;
30617;SDS011;17384;51.214;9.202;2023-07-20T11:46:44;1.27;;;0.60;;
30617;SDS011;17384;51.214;9.202;2023-07-20T11:49:10;1.15;;;0.60;;
30617;SDS011;17384;51.214;9.202;2023-07-20T11:51:37;0.93;;;0.60;;
30617;SDS011;17384;51.214;9.202;2023-07-20T11:54:05;0.60;;;0.50;;
30617;SDS011;17384;51.214;9.202;2023-07-20T11:56:32;1.17;;;0.47;;
30617;SDS011;17384;51.214;9.202;2023-07-20T11:58:58;0.60;;;0.50;;
30617;SDS011;17384;51.214;9.202;2023-07-20T12:01:26;0.50;;;0.50;;
30617;SDS011;17384;51.214;9.202;2023-07-20T12:04:03;1.77;;;0.60;;
30617;SDS011;17384;51.214;9.202;2023-07-20T12:06:29;1.35;;;0.65;;
30617;SDS011;17384;51.214;9.202;2023-07-20T12:08:56;1.75;;;0.70;;
30617;SDS011;17384;51.214;9.202;2023-07-20T12:11:35;1.27;;;0.70;;
30617;SDS011;17384;51.214;9.202;2023-07-20T12:14:02;0.45;;;0.40;;
30617;SDS011;17384;51.214;9.202;2023-07-20T12:16:29;2.60;;;0.75;;
30617;SDS011;17384;51.214;9.202;2023-07-20T12:19:04;1.67;;;0.47;;
30617;SDS011;17384;51.214;9.202;2023-07-20T12:21:31;0.70;;;0.50;;
30617;SDS011;17384;51.214;9.202;2023-07-20T12:23:59;3.53;;;0.50;;
30617;SDS011;17384;51.214;9.202;2023-07-20T12:26:25;0.55;;;0.55;;
30617;SDS011;17384;51.214;9.202;2023-07-20T12:28:54;0.52;;;0.52;;
30617;SDS011;17384;51.214;9.202;2023-07-20T12:31:22;2.92;;;0.70;;
30617;SDS011;17384;51.214;9.202;2023-07-20T12:33:49;1.77;;;0.60;;
30617;SDS011;17384;51.214;9.202;2023-07-20T12:36:15;1.00;;;0.45;;
30617;SDS011;17384;51.214;9.202;2023-07-20T12:38:41;3.22;;;0.60;;
30617;SDS011;17384;51.214;9.202;2023-07-20T12:41:07;2.67;;;0.57;;
30617;SDS011;17384;51.214;9.202;2023-07-20T12:43:33;1.80;;;0.55;;
30617;SDS011;17384;51.214;9.202;2023-07-20T12:45:58;0.38;;;0.38;;
30617;SDS011;17384;51.214;9.202;2023-07-20T12:48:24;1.33;;;0.65;;
30617;SDS011;17384;51.214;9.202;2023-07-20T12:50:50;1.75;;;0.75;;
30617;SDS011;17384;51.214;9.202;2023-07-20T12:53:16;1.83;;;0.70;;
30617;SDS011;17384;51.214;9.202;2023-07-20T12:55:42;0.55;;;0.50;;
30617;SDS011;17384;51.214;9.202;2023-07-20T12:58:07;0.80;;;0.60;;
30617;SDS011;17384;51.214;9.202;2023-07-20T13:00:34;0.70;;;0.50;;
30617;SDS011;17384;51.214;9.202;2023-07-20T13:02:59;0.80;;;0.80;;
30617;SDS011;17384;51.214;9.202;2023-07-20T13:05:25;0.88;;;0.70;;
30617;SDS011;17384;51.214;9.202;2023-07-20T13:07:50;0.80;;;0.80;;
30617;SDS011;17384;51.214;9.202;2023-07-20T13:10:16;0.70;;;0.70;;
30617;SDS011;17384;51.214;9.202;2023-07-20T13:12:42;2.65;;;0.63;;
30617;SDS011;17384;51.214;9.202;2023-07-20T13:15:08;1.20;;;0.90;;
30617;SDS011;17384;51.214;9.202;2023-07-20T13:17:37;4.32;;;0.63;;
30617;SDS011;17384;51.214;9.202;2023-07-20T13:20:04;0.75;;;0.50;;
30617;SDS011;17384;51.214;9.202;2023-07-20T13:22:32;1.52;;;0.75;;
30617;SDS011;17384;51.214;9.202;2023-07-20T13:24:58;1.23;;;0.55;;
30617;SDS011;17384;51.214;9.202;2023-07-20T13:27:23;4.03;;;0.50;;
30617;SDS011;17384;51.214;9.202;2023-07-20T13:29:51;1.15;;;0.57;;
30617;SDS011;17384;51.214;9.202;2023-07-20T13:32:16;0.95;;;0.63;;
30617;SDS011;17384;51.214;9.202;2023-07-20T13:34:46;0.85;;;0.50;;
30617;SDS011;17384;51.214;9.202;2023-07-20T13:37:11;1.50;;;0.70;;
30617;SDS011;17384;51.214;9.202;2023-07-20T13:39:37;1.00;;;0.77;;
30617;SDS011;17384;51.214;9.202;2023-07-20T13:42:03;1.27;;;0.93;;
30617;SDS011;17384;51.214;9.202;2023-07-20T13:44:33;1.13;;;0.80;;
30617;SDS011;17384;51.214;9.202;2023-07-20T13:46:59;0.73;;;0.60;;
30617;SDS011;17384;51.214;9.202;2023-07-20T13:49:26;0.70;;;0.68;;
30617;SDS011;17384;51.214;9.202;2023-07-20T13:51:52;1.30;;;0.70;;
30617;SDS011;17384;51.214;9.202;2023-07-20T13:54:17;0.77;;;0.60;;
30617;SDS011;17384;51.214;9.202;2023-07-20T13:56:43;3.47;;;0.68;;
30617;SDS011;17384;51.214;9.202;2023-07-20T13:59:08;1.20;;;0.65;;
30617;SDS011;17384;51.214;9.202;2023-07-20T14:01:34;0.80;;;0.70;;
30617;SDS011;17384;51.214;9.202;2023-07-20T14:04:00;2.42;;;0.73;;
30617;SDS011;17384;51.214;9.202;2023-07-20T14:06:29;0.98;;;0.60;;
30617;SDS011;17384;51.214;9.202;2023-07-20T14:08:56;0.50;;;0.50;;
30617;SDS011;17384;51.214;9.202;2023-07-20T14:11:22;1.38;;;0.50;;
30617;SDS011;17384;51.214;9.202;2023-07-20T14:13:49;1.70;;;0.50;;
30617;SDS011;17384;51.214;9.202;2023-07-20T14:16:15;1.08;;;0.57;;
30617;SDS011;17384;51.214;9.202;2023-07-20T14:18:40;1.33;;;0.90;;
30617;SDS011;17384;51.214;9.202;2023-07-20T14:21:06;0.70;;;0.70;;
30617;SDS011;17384;51.214;9.202;2023-07-20T14:23:33;0.85;;;0.60;;
30617;SDS011;17384;51.214;9.202;2023-07-20T14:25:59;3.95;;;0.77;;
30617;SDS011;17384;51.214;9.202;2023-07-20T14:28:24;0.80;;;0.60;;
30617;SDS011;17384;51.214;9.202;2023-07-20T14:30:50;0.77;;;0.77;;
30617;SDS011;17384;51.214;9.202;2023-07-20T14:33:15;0.70;;;0.70;;
30617;SDS011;17384;51.214;9.202;2023-07-20T14:35:41;7.97;;;0.95;;
30617;SDS011;17384;51.214;9.202;2023-07-20T14:38:07;0.82;;;0.80;;
30617;SDS011;17384;51.214;9.202;2023-07-20T14:40:32;1.05;;;0.65;;
30617;SDS011;17384;51.214;9.202;2023-07-20T14:42:58;2.53;;;0.70;;
30617;SDS011;17384;51.214;9.202;2023-07-20T14:45:26;3.33;;;0.95;;
30617;SDS011;17384;51.214;9.202;2023-07-20T14:47:52;0.90;;;0.60;;
30617;SDS011;17384;51.214;9.202;2023-07-20T14:50:21;1.85;;;0.75;;
30617;SDS011;17384;51.214;9.202;2023-07-20T14:52:48;1.02;;;0.70;;
30617;SDS011;17384;51.214;9.202;2023-07-20T14:55:14;2.25;;;0.70;;
30617;SDS011;17384;51.214;9.202;2023-07-20T14:57:39;2.78;;;0.80;;
30617;SDS011;17384;51.214;9.202;2023-07-20T15:00:05;2.35;;;0.93;;
30617;SDS011;17384;51.214;9.202;2023-07-20T15:02:37;3.23;;;0.80;;